createdAt,value
2023-01-08T00:01:30.913Z,6.90
2023-01-08T00:03:58.186Z,6.03
2023-01-08T00:06:25.529Z,8.65
2023-01-08T00:08:52.731Z,7.82
2023-01-08T00:11:19.944Z,7.75
2023-01-08T00:13:47.152Z,6.68
2023-01-08T00:16:18.201Z,7.30
2023-01-08T00:18:45.689Z,6.45
2023-01-08T00:21:13.046Z,7.90
2023-01-08T00:23:40.304Z,6.78
2023-01-08T00:26:10.000Z,7.45
2023-01-08T00:28:38.003Z,5.70
2023-01-08T00:31:06.112Z,7.10
2023-01-08T00:33:35.325Z,7.45
2023-01-08T00:36:07.532Z,8.90
2023-01-08T00:38:34.847Z,7.00
2023-01-08T00:41:02.154Z,6.77
2023-01-08T00:43:29.388Z,8.02
2023-01-08T00:45:56.627Z,7.65
2023-01-08T00:48:25.056Z,7.00
2023-01-08T00:50:54.626Z,9.20
2023-01-08T00:53:22.691Z,7.67
2023-01-08T00:55:50.214Z,7.70
2023-01-08T00:58:17.436Z,8.27
2023-01-08T01:00:44.654Z,6.85
2023-01-08T01:03:11.869Z,7.05
2023-01-08T01:05:39.067Z,8.17
2023-01-08T01:08:07.708Z,7.45
2023-01-08T01:10:34.943Z,8.13
2023-01-08T01:13:02.116Z,9.02
2023-01-08T01:15:29.370Z,8.10
2023-01-08T01:17:56.629Z,7.20
2023-01-08T01:20:23.951Z,8.15
2023-01-08T01:22:51.163Z,7.28
2023-01-08T01:25:19.846Z,8.73
2023-01-08T01:27:47.138Z,8.52
2023-01-08T01:30:14.429Z,6.57
2023-01-08T01:32:41.615Z,6.45
2023-01-08T01:35:09.395Z,7.93
2023-01-08T01:37:36.836Z,9.35
2023-01-08T01:40:05.019Z,9.48
2023-01-08T01:42:39.722Z,8.80
2023-01-08T01:45:15.977Z,9.25
2023-01-08T01:47:46.362Z,8.40
2023-01-08T01:50:17.990Z,8.20
2023-01-08T01:52:49.264Z,8.52
2023-01-08T01:55:17.274Z,9.43
2023-01-08T01:57:50.616Z,8.38
2023-01-08T02:00:18.828Z,9.60
2023-01-08T02:02:46.104Z,9.48
2023-01-08T02:05:13.344Z,7.93
2023-01-08T02:07:47.091Z,8.63
2023-01-08T02:10:20.719Z,8.70
2023-01-08T02:12:56.585Z,8.45
2023-01-08T02:15:31.224Z,9.85
2023-01-08T02:18:05.211Z,8.10
2023-01-08T02:20:37.350Z,10.13
2023-01-08T02:23:16.672Z,7.45
2023-01-08T02:26:09.416Z,8.38
2023-01-08T02:28:40.905Z,7.80
2023-01-08T02:31:08.747Z,9.00
2023-01-08T02:33:36.312Z,9.07
2023-01-08T02:36:25.521Z,8.85
2023-01-08T02:39:08.047Z,8.85
2023-01-08T02:41:52.564Z,8.90
2023-01-08T02:44:25.797Z,9.50
2023-01-08T02:46:56.551Z,7.83
2023-01-08T02:49:27.373Z,8.75
2023-01-08T02:51:57.307Z,9.82
2023-01-08T02:54:28.856Z,9.32
2023-01-08T02:57:00.836Z,8.73
2023-01-08T02:59:31.353Z,7.97
2023-01-08T03:01:59.484Z,11.23
2023-01-08T03:04:30.993Z,8.45
2023-01-08T03:06:58.300Z,10.27
2023-01-08T03:09:25.715Z,8.57
2023-01-08T03:11:58.953Z,10.07
2023-01-08T03:14:31.675Z,8.95
2023-01-08T03:17:05.913Z,8.75
2023-01-08T03:19:37.815Z,10.38
2023-01-08T03:22:09.363Z,8.43
2023-01-08T03:24:39.569Z,9.43
2023-01-08T03:27:14.341Z,9.75
2023-01-08T03:29:43.386Z,9.80
2023-01-08T03:32:14.320Z,10.35
2023-01-08T03:34:43.752Z,10.25
2023-01-08T03:37:13.662Z,12.80
2023-01-08T03:39:43.981Z,9.38
2023-01-08T03:42:14.882Z,10.57
2023-01-08T03:44:43.514Z,9.10
2023-01-08T03:47:11.861Z,9.95
2023-01-08T03:49:41.499Z,9.57
2023-01-08T03:52:08.727Z,10.45
2023-01-08T03:54:37.318Z,10.77
2023-01-08T03:57:04.561Z,8.80
2023-01-08T03:59:31.808Z,9.18
2023-01-08T04:02:00.475Z,8.53
2023-01-08T04:04:27.834Z,9.20
2023-01-08T04:06:55.047Z,9.88
2023-01-08T04:09:22.218Z,10.35
2023-01-08T04:11:49.423Z,10.63
2023-01-08T04:14:16.610Z,9.93
2023-01-08T04:16:43.815Z,9.68
2023-01-08T04:19:12.915Z,9.35
2023-01-08T04:21:40.437Z,11.05
2023-01-08T04:24:07.956Z,11.10
2023-01-08T04:26:35.233Z,11.13
2023-01-08T04:29:02.636Z,9.57
2023-01-08T04:31:29.909Z,9.63
2023-01-08T04:33:57.224Z,9.07
2023-01-08T04:36:25.811Z,10.02
2023-01-08T04:38:53.062Z,9.23
2023-01-08T04:41:20.280Z,9.77
2023-01-08T04:43:47.493Z,12.02
2023-01-08T04:46:14.809Z,9.95
2023-01-08T04:48:42.035Z,10.35
2023-01-08T04:51:09.220Z,9.90
2023-01-08T04:53:39.242Z,10.40
2023-01-08T04:56:08.284Z,10.13
2023-01-08T04:58:36.299Z,9.65
2023-01-08T05:01:10.381Z,9.45
2023-01-08T05:03:37.676Z,9.93
2023-01-08T05:06:05.535Z,9.88
2023-01-08T05:08:32.736Z,8.93
2023-01-08T05:11:01.890Z,12.52
2023-01-08T05:13:29.325Z,9.60
2023-01-08T05:15:59.082Z,11.13
2023-01-08T05:18:27.519Z,13.00
2023-01-08T05:20:54.895Z,11.07
2023-01-08T05:23:22.140Z,12.75
2023-01-08T05:25:49.361Z,9.63
2023-01-08T05:28:17.871Z,11.73
2023-01-08T05:30:45.134Z,10.75
2023-01-08T05:33:12.430Z,10.02
2023-01-08T05:35:40.060Z,9.57
2023-01-08T05:38:07.448Z,10.25
2023-01-08T05:40:34.763Z,11.57
2023-01-08T05:43:02.694Z,9.20
2023-01-08T05:45:31.253Z,9.63
2023-01-08T05:47:58.589Z,11.07
2023-01-08T05:50:26.165Z,9.55
2023-01-08T05:52:53.328Z,11.00
2023-01-08T05:55:20.520Z,10.30
2023-01-08T05:57:47.745Z,10.15
2023-01-08T06:00:15.788Z,10.77
2023-01-08T06:02:47.772Z,9.98
2023-01-08T06:05:15.444Z,9.77
2023-01-08T06:07:42.643Z,11.10
2023-01-08T06:10:10.098Z,10.65
2023-01-08T06:12:37.509Z,9.13
2023-01-08T06:15:05.820Z,10.25
2023-01-08T06:17:34.400Z,9.50
2023-01-08T06:20:03.149Z,9.50
2023-01-08T06:22:31.855Z,10.07
2023-01-08T06:25:00.127Z,9.57
2023-01-08T06:27:27.404Z,8.73
2023-01-08T06:29:54.651Z,10.20
2023-01-08T06:32:22.078Z,10.48
2023-01-08T06:34:49.274Z,8.95
2023-01-08T06:37:17.875Z,9.75
2023-01-08T06:39:45.063Z,9.73
2023-01-08T06:42:12.274Z,9.97
2023-01-08T06:44:39.480Z,9.65
2023-01-08T06:47:06.690Z,9.60
2023-01-08T06:49:33.882Z,9.48
2023-01-08T06:52:01.131Z,8.02
2023-01-08T06:54:29.683Z,7.73
2023-01-08T06:56:56.866Z,8.52
2023-01-08T06:59:24.083Z,8.57
2023-01-08T07:01:51.395Z,9.25
2023-01-08T07:04:19.173Z,9.63
2023-01-08T07:06:46.414Z,8.27
2023-01-08T07:09:14.055Z,7.72
2023-01-08T07:11:43.604Z,7.53
2023-01-08T07:14:10.837Z,7.90
2023-01-08T07:16:38.078Z,9.52
2023-01-08T07:19:05.532Z,8.27
2023-01-08T07:21:32.783Z,7.75
2023-01-08T07:24:00.080Z,7.70
2023-01-08T07:26:27.783Z,9.38
2023-01-08T07:28:56.332Z,7.82
2023-01-08T07:31:23.573Z,8.10
2023-01-08T07:33:50.912Z,6.45
2023-01-08T07:36:22.309Z,7.57
2023-01-08T07:38:49.903Z,8.50
2023-01-08T07:41:17.482Z,7.72
2023-01-08T07:43:46.679Z,7.40
2023-01-08T07:46:15.775Z,7.38
2023-01-08T07:48:43.076Z,7.72
2023-01-08T07:51:10.859Z,7.40
2023-01-08T07:53:38.352Z,7.70
2023-01-08T07:56:08.051Z,8.17
2023-01-08T07:58:35.255Z,7.03
2023-01-08T08:01:03.013Z,8.73
2023-01-08T08:04:08.641Z,8.88
2023-01-08T08:06:35.852Z,7.50
2023-01-08T08:09:03.738Z,7.57
2023-01-08T08:11:30.939Z,7.00
2023-01-08T08:13:58.183Z,8.18
2023-01-08T08:16:25.436Z,6.95
2023-01-08T08:18:52.676Z,6.88
2023-01-08T08:21:21.248Z,8.40
2023-01-08T08:23:48.451Z,7.43
2023-01-08T08:26:15.684Z,8.05
2023-01-08T08:28:43.003Z,7.75
2023-01-08T08:31:10.271Z,8.60
2023-01-08T08:33:37.505Z,8.40
2023-01-08T08:36:05.277Z,7.90
2023-01-08T08:38:33.981Z,8.45
2023-01-08T08:41:01.322Z,8.65
2023-01-08T08:43:28.525Z,5.70
2023-01-08T08:45:55.870Z,7.43
2023-01-08T08:48:23.532Z,7.05
2023-01-08T08:50:50.832Z,7.40
2023-01-08T08:53:18.042Z,7.70
2023-01-08T08:55:46.545Z,8.35
2023-01-08T08:58:14.186Z,8.20
2023-01-08T09:00:43.073Z,7.22
2023-01-08T09:03:13.350Z,9.60
2023-01-08T09:05:40.602Z,8.45
2023-01-08T09:08:08.348Z,7.43
2023-01-08T09:10:37.390Z,9.43
2023-01-08T09:13:05.935Z,8.45
2023-01-08T09:15:33.106Z,7.78
2023-01-08T09:18:00.348Z,8.05
2023-01-08T09:20:27.706Z,8.05
2023-01-08T09:22:57.747Z,6.70
2023-01-08T09:25:25.126Z,8.38
2023-01-08T09:27:59.228Z,6.90
2023-01-08T09:30:28.538Z,6.78
2023-01-08T09:33:02.109Z,6.90
2023-01-08T09:35:30.323Z,7.00
2023-01-08T09:37:57.888Z,6.65
2023-01-08T09:40:29.837Z,7.13
2023-01-08T09:43:00.925Z,6.60
2023-01-08T09:45:31.619Z,7.35
2023-01-08T09:48:02.060Z,8.17
2023-01-08T09:50:31.819Z,9.52
2023-01-08T09:53:00.349Z,7.15
2023-01-08T09:55:29.733Z,8.32
2023-01-08T09:57:56.979Z,7.15
2023-01-08T10:00:28.536Z,6.60
2023-01-08T10:02:58.096Z,8.55
2023-01-08T10:05:26.785Z,7.07
2023-01-08T10:07:54.090Z,6.97
2023-01-08T10:10:23.911Z,7.00
2023-01-08T10:12:52.751Z,8.50
2023-01-08T10:15:21.024Z,6.82
2023-01-08T10:17:53.223Z,8.93
2023-01-08T10:20:25.017Z,8.05
2023-01-08T10:22:59.428Z,10.15
2023-01-08T10:25:28.279Z,6.53
2023-01-08T10:27:59.784Z,9.05
2023-01-08T10:30:34.835Z,7.07
2023-01-08T10:33:05.361Z,7.20
2023-01-08T10:35:37.620Z,6.53
2023-01-08T10:38:05.247Z,8.43
2023-01-08T10:40:37.792Z,8.00
2023-01-08T10:43:11.880Z,7.93
2023-01-08T10:45:39.235Z,8.98
2023-01-08T10:48:13.498Z,8.10
2023-01-08T10:50:42.037Z,8.27
2023-01-08T10:53:24.732Z,7.25
2023-01-08T10:55:58.979Z,7.72
2023-01-08T10:58:28.872Z,7.03
2023-01-08T11:01:08.340Z,8.05
2023-01-08T11:03:36.037Z,7.90
2023-01-08T11:06:13.205Z,8.30
2023-01-08T11:08:51.579Z,7.32
2023-01-08T11:11:19.740Z,7.25
2023-01-08T11:13:58.957Z,8.73
2023-01-08T11:16:36.885Z,8.13
2023-01-08T11:19:05.427Z,7.82
2023-01-08T11:21:36.105Z,9.60
2023-01-08T11:24:18.595Z,8.63
2023-01-08T11:26:51.642Z,8.13
2023-01-08T11:29:24.530Z,7.43
2023-01-08T11:31:57.555Z,7.95
2023-01-08T11:34:31.589Z,6.80
2023-01-08T11:37:08.525Z,7.80
2023-01-08T11:39:38.493Z,7.43
2023-01-08T11:42:20.383Z,8.80
2023-01-08T11:44:58.952Z,7.95
2023-01-08T11:47:38.320Z,8.40
2023-01-08T11:50:14.363Z,7.50
2023-01-08T11:52:52.180Z,8.70
2023-01-08T11:55:30.205Z,8.73
2023-01-08T11:58:22.804Z,8.70
2023-01-08T12:01:10.272Z,8.13
2023-01-08T12:03:42.474Z,8.43
2023-01-08T12:06:28.104Z,8.77
2023-01-08T12:09:10.214Z,10.43
2023-01-08T12:11:46.918Z,10.82
2023-01-08T12:14:29.243Z,8.02
2023-01-08T12:17:10.464Z,8.38
2023-01-08T12:19:51.919Z,9.07
2023-01-08T12:22:36.192Z,11.67
2023-01-08T12:25:21.247Z,9.00
2023-01-08T12:27:58.886Z,10.13
2023-01-08T12:30:36.534Z,9.75
2023-01-08T12:33:08.781Z,11.40
2023-01-08T12:35:40.537Z,8.73
2023-01-08T12:38:13.597Z,8.93
2023-01-08T12:40:45.877Z,7.78
2023-01-08T12:43:18.089Z,11.23
2023-01-08T12:45:48.123Z,9.82
2023-01-08T12:48:17.116Z,8.63
2023-01-08T12:50:53.172Z,7.63
2023-01-08T12:53:30.743Z,8.13
2023-01-08T12:56:05.442Z,8.75
2023-01-08T12:58:43.619Z,8.70
2023-01-08T13:01:27.244Z,11.53
2023-01-08T13:03:55.825Z,9.82
2023-01-08T13:06:23.376Z,8.25
2023-01-08T13:08:53.515Z,9.15
2023-01-08T13:11:27.796Z,8.75
2023-01-08T13:14:00.760Z,7.63
2023-01-08T13:16:28.301Z,9.85
2023-01-08T13:18:57.306Z,9.40
2023-01-08T13:21:34.292Z,8.57
2023-01-08T13:24:28.707Z,10.65
2023-01-08T13:27:09.346Z,8.80
2023-01-08T13:29:40.098Z,9.43
2023-01-08T13:32:24.975Z,7.85
2023-01-08T13:35:22.339Z,9.52
2023-01-08T13:37:51.533Z,8.75
2023-01-08T13:40:39.510Z,11.77
2023-01-08T13:43:13.964Z,9.02
2023-01-08T13:45:42.820Z,10.70
2023-01-08T13:48:22.156Z,11.18
2023-01-08T13:50:50.657Z,8.55
2023-01-08T13:53:19.228Z,10.53
2023-01-08T13:55:55.649Z,9.98
2023-01-08T13:58:30.740Z,8.57
2023-01-08T14:01:00.041Z,8.75
2023-01-08T14:03:29.221Z,9.77
2023-01-08T14:06:06.805Z,10.00
2023-01-08T14:08:34.708Z,11.25
2023-01-08T14:11:03.848Z,7.70
2023-01-08T14:13:35.609Z,9.05
2023-01-08T14:16:05.743Z,9.80
2023-01-08T14:18:47.338Z,9.53
2023-01-08T14:21:19.902Z,8.80
2023-01-08T14:23:49.572Z,10.95
2023-01-08T14:26:24.509Z,9.82
2023-01-08T14:28:54.105Z,10.90
2023-01-08T14:31:23.536Z,10.17
2023-01-08T14:33:53.259Z,11.38
2023-01-08T14:36:21.790Z,10.52
2023-01-08T14:38:52.857Z,10.35
2023-01-08T14:41:46.149Z,10.85
2023-01-08T14:44:26.004Z,9.73
2023-01-08T14:46:56.668Z,10.32
2023-01-08T14:49:27.474Z,10.43
2023-01-08T14:51:56.701Z,11.60
2023-01-08T14:54:29.840Z,12.00
2023-01-08T14:57:01.553Z,10.50
2023-01-08T14:59:32.436Z,11.95
2023-01-08T15:02:01.658Z,10.38
2023-01-08T15:04:30.128Z,13.02
2023-01-08T15:07:24.162Z,14.23
2023-01-08T15:09:56.306Z,11.63
2023-01-08T15:12:25.407Z,9.93
2023-01-08T15:14:55.310Z,12.35
2023-01-08T15:17:28.139Z,11.77
2023-01-08T15:19:58.005Z,13.25
2023-01-08T15:22:27.573Z,11.50
2023-01-08T15:24:58.496Z,12.60
2023-01-08T15:27:30.295Z,13.35
2023-01-08T15:30:00.943Z,11.93
2023-01-08T15:32:34.795Z,14.43
2023-01-08T15:35:02.685Z,11.80
2023-01-08T15:37:30.511Z,11.85
2023-01-08T15:39:58.131Z,9.60
2023-01-08T15:42:48.373Z,13.32
2023-01-08T15:45:19.337Z,11.73
2023-01-08T15:47:46.937Z,12.30
2023-01-08T15:50:17.461Z,12.50
2023-01-08T15:52:45.080Z,12.73
2023-01-08T15:55:17.026Z,11.52
2023-01-08T15:57:46.993Z,12.70
2023-01-08T16:00:15.862Z,12.30
2023-01-08T16:02:47.052Z,11.75
2023-01-08T16:05:21.316Z,13.63
2023-01-08T16:07:48.792Z,11.98
2023-01-08T16:10:16.591Z,11.98
2023-01-08T16:12:44.347Z,12.83
2023-01-08T16:15:13.001Z,13.27
2023-01-08T16:17:40.561Z,11.00
2023-01-08T16:20:11.166Z,10.60
2023-01-08T16:22:38.612Z,12.27
2023-01-08T16:25:07.252Z,13.93
2023-01-08T16:27:35.199Z,12.80
2023-01-08T16:30:02.659Z,11.05
2023-01-08T16:32:30.106Z,10.40
2023-01-08T16:34:57.570Z,13.30
2023-01-08T16:37:26.517Z,11.60
2023-01-08T16:40:10.182Z,11.80
2023-01-08T16:42:37.868Z,11.73
2023-01-08T16:45:06.909Z,12.02
2023-01-08T16:47:37.416Z,10.77
2023-01-08T16:50:05.955Z,10.27
2023-01-08T16:52:36.945Z,11.50
2023-01-08T16:55:05.383Z,11.68
2023-01-08T16:57:32.921Z,11.60
2023-01-08T17:00:00.700Z,13.50
2023-01-08T17:02:28.153Z,11.60
2023-01-08T17:04:55.605Z,11.35
2023-01-08T17:07:23.166Z,12.30
2023-01-08T17:09:51.945Z,12.63
2023-01-08T17:12:22.553Z,10.50
2023-01-08T17:15:15.793Z,10.90
2023-01-08T17:17:43.307Z,12.55
2023-01-08T17:20:11.633Z,13.10
2023-01-08T17:22:39.165Z,11.63
2023-01-08T17:25:09.112Z,11.90
2023-01-08T17:27:37.065Z,11.03
2023-01-08T17:30:05.556Z,10.90
2023-01-08T17:32:34.491Z,9.73
2023-01-08T17:35:02.051Z,12.68
2023-01-08T17:37:29.984Z,16.20
2023-01-08T17:39:57.394Z,11.27
2023-01-08T17:42:27.794Z,12.35
2023-01-08T17:44:57.367Z,14.27
2023-01-08T17:47:25.846Z,12.65
2023-01-08T17:49:54.580Z,11.73
2023-01-08T17:52:23.068Z,12.83
2023-01-08T17:54:51.604Z,14.75
2023-01-08T17:57:19.856Z,12.05
2023-01-08T17:59:48.825Z,14.65
2023-01-08T18:02:17.286Z,16.25
2023-01-08T18:04:48.895Z,19.80
2023-01-08T18:07:16.808Z,13.75
2023-01-08T18:09:44.970Z,15.30
2023-01-08T18:12:12.513Z,11.73
2023-01-08T18:14:41.477Z,11.00
2023-01-08T18:17:10.343Z,12.23
2023-01-08T18:19:38.488Z,11.88
2023-01-08T18:22:06.237Z,12.27
2023-01-08T18:24:34.766Z,13.02
2023-01-08T18:27:02.319Z,14.65
2023-01-08T18:29:30.173Z,11.77
2023-01-08T18:31:57.885Z,11.82
2023-01-08T18:34:26.708Z,14.20
2023-01-08T18:36:55.864Z,12.02
2023-01-08T18:39:23.433Z,13.13
2023-01-08T18:42:09.534Z,12.70
2023-01-08T18:44:38.039Z,12.15
2023-01-08T18:47:05.527Z,11.35
2023-01-08T18:50:03.038Z,11.48
2023-01-08T18:52:30.703Z,10.32
2023-01-08T18:55:03.605Z,10.63
2023-01-08T18:57:31.252Z,12.77
2023-01-08T18:59:58.812Z,12.38
2023-01-08T19:02:27.876Z,12.18
2023-01-08T19:05:02.673Z,11.75
2023-01-08T19:07:31.777Z,11.33
2023-01-08T19:10:01.187Z,13.13
2023-01-08T19:12:31.991Z,12.25
2023-01-08T19:15:00.836Z,12.98
2023-01-08T19:17:30.739Z,12.55
2023-01-08T19:19:58.464Z,10.73
2023-01-08T19:22:28.893Z,11.35
2023-01-08T19:24:58.012Z,11.65
2023-01-08T19:27:25.502Z,13.40
2023-01-08T19:29:52.948Z,15.70
2023-01-08T19:32:28.496Z,14.33
2023-01-08T19:34:55.984Z,13.88
2023-01-08T19:37:23.561Z,12.85
2023-01-08T19:39:51.054Z,13.63
2023-01-08T19:42:38.447Z,14.63
2023-01-08T19:45:06.840Z,15.00
2023-01-08T19:47:39.267Z,12.98
2023-01-08T19:50:07.416Z,14.77
2023-01-08T19:52:34.969Z,13.57
2023-01-08T19:55:02.608Z,14.05
2023-01-08T19:57:31.494Z,13.37
2023-01-08T19:59:59.070Z,12.77
2023-01-08T20:02:26.685Z,13.98
2023-01-08T20:04:54.250Z,14.05
2023-01-08T20:07:21.726Z,13.02
2023-01-08T20:09:49.203Z,14.37
2023-01-08T20:12:20.595Z,13.65
2023-01-08T20:14:49.542Z,14.32
2023-01-08T20:17:21.663Z,15.52
2023-01-08T20:19:50.220Z,14.77
2023-01-08T20:22:18.154Z,14.87
2023-01-08T20:24:46.254Z,16.08
2023-01-08T20:27:13.770Z,17.08
2023-01-08T20:29:41.693Z,15.18
2023-01-08T20:32:29.004Z,17.20
2023-01-08T20:34:56.499Z,18.53
2023-01-08T20:37:23.979Z,16.70
2023-01-08T20:39:51.865Z,17.20
2023-01-08T20:42:33.121Z,15.73
2023-01-08T20:47:44.317Z,16.70
2023-01-08T20:50:19.368Z,15.98
2023-01-08T20:52:47.698Z,15.00
2023-01-08T20:55:16.921Z,15.65
2023-01-08T20:57:45.456Z,15.15
2023-01-08T21:00:13.691Z,18.07
2023-01-08T21:02:41.365Z,15.00
2023-01-08T21:05:10.623Z,15.95
2023-01-08T21:07:38.200Z,16.67
2023-01-08T21:10:06.975Z,17.05
2023-01-08T21:12:37.150Z,16.00
2023-01-08T21:15:05.468Z,14.98
2023-01-08T21:17:32.983Z,16.63
2023-01-08T21:20:00.612Z,15.15
2023-01-08T21:22:29.442Z,15.68
2023-01-08T21:24:56.997Z,15.93
2023-01-08T21:27:24.517Z,15.77
2023-01-08T21:29:52.370Z,13.80
2023-01-08T21:32:20.024Z,15.32
2023-01-08T21:34:47.545Z,12.13
2023-01-08T21:37:15.726Z,14.30
2023-01-08T21:39:44.610Z,14.18
2023-01-08T21:42:30.743Z,15.02
2023-01-08T21:45:16.816Z,13.77
2023-01-08T21:47:44.275Z,17.13
2023-01-08T21:50:12.366Z,13.53
2023-01-08T21:52:58.428Z,13.43
2023-01-08T21:55:35.982Z,12.52
2023-01-08T21:58:03.584Z,13.63
2023-01-08T22:00:32.666Z,14.80
2023-01-08T22:03:00.386Z,13.23
2023-01-08T22:05:28.010Z,13.75
2023-01-08T22:07:55.565Z,13.75
2023-01-08T22:10:23.038Z,15.48
2023-01-08T22:12:53.839Z,13.07
2023-01-08T22:15:21.460Z,12.63
2023-01-08T22:17:48.748Z,15.20
2023-01-08T22:20:23.052Z,13.70
2023-01-08T22:22:54.612Z,12.27
2023-01-08T22:25:26.483Z,13.55
2023-01-08T22:27:56.589Z,10.83
2023-01-08T22:30:24.155Z,13.13
2023-01-08T22:32:51.648Z,13.07
2023-01-08T22:35:19.221Z,14.23
2023-01-08T22:37:49.593Z,13.70
2023-01-08T22:40:17.595Z,14.47
2023-01-08T22:42:53.238Z,12.90
2023-01-08T22:45:22.145Z,12.95
2023-01-08T22:47:51.777Z,11.77
2023-01-08T22:50:19.430Z,12.98
2023-01-08T22:52:46.958Z,13.73
2023-01-08T22:55:14.489Z,12.52
2023-01-08T22:57:42.014Z,12.57
2023-01-08T23:00:11.232Z,11.80
2023-01-08T23:02:40.179Z,13.80
2023-01-08T23:05:08.018Z,13.73
2023-01-08T23:07:35.299Z,13.75
2023-01-08T23:10:02.532Z,13.63
2023-01-08T23:12:32.233Z,13.18
2023-01-08T23:15:56.211Z,15.38
2023-01-08T23:18:25.079Z,11.43
2023-01-08T23:20:52.783Z,13.75
2023-01-08T23:23:20.347Z,14.85
2023-01-08T23:25:47.954Z,11.85
2023-01-08T23:28:15.459Z,13.32
2023-01-08T23:30:43.034Z,12.43
2023-01-08T23:33:10.523Z,13.10
2023-01-08T23:35:39.271Z,14.50
2023-01-08T23:38:15.960Z,12.23
2023-01-08T23:40:44.259Z,12.20
2023-01-08T23:43:12.061Z,14.00
2023-01-08T23:45:39.955Z,14.07
2023-01-08T23:48:07.957Z,12.68
2023-01-08T23:50:41.016Z,14.10
2023-01-08T23:53:08.734Z,13.23
2023-01-08T23:55:36.304Z,12.10
2023-01-08T23:58:03.880Z,12.43
